Blue Star 2 — SYSV — position and weather

sailwx.info

Track history (hours):
 
Tides and Currents Weather Stations Pressure Air Temp Water Temp Dewpoint Dewpoint Depression Visibility Wind Speed Wind Dir Waves Ship Positions

Blue Star 2

Last reported at 2018-Jun-18 22:27 UTC. Time now 2018-Jun-19 10:39 UTC.
Position N 37°18' E 025°53'.

Length 176.1 m; beam 25.7 m; draft 6.5 m.

Type: Passenger vessel. MMSI: 239737000.

Date/timePositionNaut miles runAvg speedWind from/ knotsBaromVisibWave heightAir tempDewpointWater temp
2018-Jun-18 22:27N 37°18' E 025°53'1524.1
2018-Jun-18 21:50N 37°20' E 025°35'824.2
2018-Jun-18 21:30N 37°20' E 025°25'1224.0
2018-Jun-18 21:01N 37°22' E 025°10'1121.8
2018-Jun-18 20:30N 37°26' E 024°57'1 2.9
2018-Jun-18 20:00N 37°27' E 024°58'1020.6
2018-Jun-18 19:31N 37°32' E 024°46'4324.3
2018-Jun-18 17:44N 37°37' E 023°52'625.0
2018-Jun-18 17:30N 37°39' E 023°45'1224.0
2018-Jun-18 17:01N 37°49' E 023°37'715.0
2018-Jun-18 16:30N 37°56' E 023°38'0 0.0
2018-Jun-18 16:00N 37°56' E 023°38'0 0.0
2018-Jun-18 15:31N 37°56' E 023°38'0 0.0
2018-Jun-18 15:00N 37°56' E 023°38'0 0.0
2018-Jun-18 14:30N 37°56' E 023°38'0 0.0
2018-Jun-18 14:00N 37°56' E 023°38'0 0.0
2018-Jun-18 13:31N 37°56' E 023°38'0 0.0
2018-Jun-18 13:00N 37°56' E 023°38'0 0.0
2018-Jun-18 12:30N 37°56' E 023°38'0 0.0
2018-Jun-18 12:00N 37°56' E 023°38'0 0.0
2018-Jun-18 11:30N 37°56' E 023°38'0 0.0
2018-Jun-18 11:00N 37°56' E 023°38'0 0.0
2018-Jun-18 10:30N 37°56' E 023°38'0 0.0
2018-Jun-18 10:00N 37°56' E 023°38'0 0.0
2018-Jun-18 09:30N 37°56' E 023°38'0 0.0
2018-Jun-18 09:00N 37°56' E 023°38'0 0.0
2018-Jun-18 08:30N 37°56' E 023°38'0 0.0
2018-Jun-18 08:00N 37°56' E 023°38'0 0.0
2018-Jun-18 07:30N 37°56' E 023°38'0 0.0
2018-Jun-18 07:00N 37°56' E 023°38'0 0.0
2018-Jun-18 06:30N 37°56' E 023°38'0 0.0
2018-Jun-18 06:00N 37°56' E 023°38'0 0.0
2018-Jun-18 05:30N 37°56' E 023°38'0 0.0
2018-Jun-18 05:00N 37°56' E 023°38'714.4
2018-Jun-18 04:31N 37°50' E 023°40'1223.8
2018-Jun-18 04:01N 37°40' E 023°48'2124.5
2018-Jun-18 03:09N 37°32' E 024°13'2524.8
2018-Jun-18 02:10N 37°31' E 024°44'425.4
2018-Jun-18 02:01N 37°32' E 024°49'815.2
2018-Jun-18 01:28N 37°26' E 024°57'5 9.6
2018-Jun-18 00:59N 37°25' E 025°02'1225.2
2018-Jun-18 00:31N 37°21' E 025°16'1325.3
2018-Jun-18 00:01N 37°19' E 025°32'1325.5
2018-Jun-17 23:31N 37°18' E 025°48'8 0.4
2018-Jun-17 04:20N 37°11' E 025°48'1524.5
2018-Jun-17 03:43N 37°14' E 025°30'524.3
2018-Jun-17 03:31N 37°15' E 025°23'1224.3
2018-Jun-17 03:00N 37°18' E 025°09'1224.0
2018-Jun-17 02:31N 37°20' E 024°54'5424.3
2018-Jun-17 00:17N 37°38' E 023°49'623.0
2018-Jun-17 00:00N 37°41' E 023°42'1223.9
2018-Jun-16 23:31N 37°52' E 023°37'4 8.9
2018-Jun-16 23:00N 37°56' E 023°38'0 0.0
2018-Jun-16 22:30N 37°56' E 023°38'0 0.0
2018-Jun-16 22:00N 37°56' E 023°38'0 0.0
2018-Jun-16 21:30N 37°56' E 023°38'0 0.0
2018-Jun-16 21:00N 37°56' E 023°38'0 0.0
2018-Jun-16 20:30N 37°56' E 023°38'1 1.3
2018-Jun-16 20:01N 37°56' E 023°37'1121.6
2018-Jun-16 19:31N 37°46' E 023°42'1224.1
2018-Jun-16 19:00N 37°38' E 023°54'1724.7
2018-Jun-16 18:19N 37°31' E 024°13'2625.5
2018-Jun-16 17:19N 37°24' E 024°44'824.9
2018-Jun-16 17:01N 37°21' E 024°53'1325.2
2018-Jun-16 16:30N 37°18' E 025°08'1224.6
2018-Jun-16 16:01N 37°15' E 025°23'1224.9
2018-Jun-16 15:30N 37°12' E 025°39'13 0.8
2018-Jun-15 22:30N 37°18' E 025°53'1624.2
2018-Jun-15 21:50N 37°20' E 025°33'824.3
2018-Jun-15 21:31N 37°21' E 025°23'1223.7
2018-Jun-15 21:01N 37°23' E 025°09'10 9.7
2018-Jun-15 19:57N 37°26' E 024°57'715.7
2018-Jun-15 19:30N 37°32' E 024°51'4824.2
2018-Jun-15 17:31N 37°37' E 023°52'024.9
2018-Jun-15 17:30N 37°37' E 023°51'1122.0
2018-Jun-15 17:01N 37°44' E 023°40'1122.5
2018-Jun-15 16:30N 37°55' E 023°37'2 3.1
2018-Jun-15 16:00N 37°56' E 023°37'0 0.0
2018-Jun-15 15:30N 37°56' E 023°37'0 0.0
2018-Jun-15 15:00N 37°56' E 023°37'0 0.0
2018-Jun-15 14:30N 37°56' E 023°37'0 0.0
2018-Jun-15 14:00N 37°56' E 023°37'0 0.0
2018-Jun-15 13:30N 37°56' E 023°37'0 0.0
2018-Jun-15 13:00N 37°56' E 023°37'0 0.0
2018-Jun-15 12:31N 37°56' E 023°37'0 0.0
2018-Jun-15 12:01N 37°56' E 023°37'0 0.0
2018-Jun-15 11:31N 37°56' E 023°37'0 0.0
2018-Jun-15 11:01N 37°56' E 023°37'0 0.0
2018-Jun-15 10:31N 37°56' E 023°37'3 6.6
2018-Jun-15 10:01N 37°53' E 023°38'1225.0
2018-Jun-15 09:30N 37°42' E 023°45'1324.2
2018-Jun-15 08:58N 37°36' E 023°60'1224.8
2018-Jun-15 08:29N 37°31' E 024°13'2425.0
2018-Jun-15 07:31N 37°31' E 024°44'025.7
2018-Jun-15 07:30N 37°31' E 024°44'1122.3
2018-Jun-15 07:00N 37°28' E 024°58'2 4.0
2018-Jun-15 06:31N 37°26' E 024°59'1325.1
2018-Jun-15 06:01N 37°21' E 025°13'1224.7
2018-Jun-15 05:31N 37°20' E 025°28'1224.8
2018-Jun-15 05:01N 37°19' E 025°44'9 0.5
2018-Jun-14 11:10N 37°11' E 025°49'425.3
2018-Jun-14 11:01N 37°12' E 025°44'1225.0
2018-Jun-14 10:30N 37°14' E 025°28'1224.6
2018-Jun-14 10:01N 37°17' E 025°13'1224.7
2018-Jun-14 09:30N 37°20' E 024°58'6125.0
2018-Jun-14 07:03N 37°39' E 023°45'225.6
2018-Jun-14 07:00N 37°40' E 023°43'1224.9
2018-Jun-14 06:31N 37°51' E 023°37'611.3
2018-Jun-14 06:00N 37°56' E 023°38'0 0.0
2018-Jun-14 05:30N 37°56' E 023°38'0 0.0
2018-Jun-14 05:00N 37°56' E 023°38'0 0.0
2018-Jun-14 04:30N 37°56' E 023°38'0 0.0
2018-Jun-14 04:00N 37°56' E 023°38'0 0.0
2018-Jun-14 03:30N 37°56' E 023°38'0 0.0
2018-Jun-14 03:00N 37°56' E 023°38'4 7.1
2018-Jun-14 02:31N 37°53' E 023°38'1325.5
2018-Jun-14 02:00N 37°41' E 023°45'4 0.1
2018-Jun-12 19:43N 37°38' E 023°46'525.0
2018-Jun-12 19:31N 37°42' E 023°42'1224.0
2018-Jun-12 19:00N 37°53' E 023°37'3 6.4
2018-Jun-12 18:30N 37°56' E 023°37'0 0.0
2018-Jun-12 18:00N 37°56' E 023°37'0 0.0
2018-Jun-12 17:30N 37°56' E 023°37'0 0.0
2018-Jun-12 17:00N 37°56' E 023°37'0 0.0
2018-Jun-12 16:30N 37°56' E 023°37'0 0.0
2018-Jun-12 16:00N 37°56' E 023°37'0 0.1
2018-Jun-12 15:30N 37°56' E 023°38'714.4
2018-Jun-12 15:00N 37°49' E 023°40'1224.6
2018-Jun-12 14:30N 37°39' E 023°49'4425.4
2018-Jun-12 12:46N 37°31' E 024°44'1025.0
2018-Jun-12 12:23N 37°31' E 024°56'5 6.4
2018-Jun-12 11:40N 37°26' E 024°57'623.0
2018-Jun-12 11:24N 37°27' E 025°04'1024.9
2018-Jun-12 11:01N 37°28' E 025°17'2 4.0
2018-Jun-12 10:30N 37°28' E 025°19'0 0.0
2018-Jun-12 10:00N 37°28' E 025°19'612.5
2018-Jun-12 09:30N 37°28' E 025°12'1223.3
2018-Jun-12 09:00N 37°26' E 024°57'2 3.9
2018-Jun-12 08:31N 37°28' E 024°58'1121.9
2018-Jun-12 08:00N 37°31' E 024°45'4524.9
2018-Jun-12 06:13N 37°39' E 023°49'526.0
2018-Jun-12 06:01N 37°41' E 023°43'1325.4
2018-Jun-12 05:31N 37°53' E 023°37'4 7.5
2018-Jun-12 05:00N 37°56' E 023°37'0 0.0
2018-Jun-12 04:31N 37°56' E 023°37'0 0.0
2018-Jun-12 04:00N 37°56' E 023°37'1 2.5
2018-Jun-12 03:30N 37°55' E 023°37'1122.2
2018-Jun-12 03:01N 37°45' E 023°43'1325.2
2018-Jun-12 02:31N 37°35' E 023°52'3 0.1
2018-Jun-10 16:14N 37°37' E 023°49'522.0
2018-Jun-10 16:00N 37°40' E 023°44'1121.8
2018-Jun-10 15:31N 37°49' E 023°38'714.5
2018-Jun-10 15:01N 37°56' E 023°37'0 0.0
2018-Jun-10 14:01N 37°56' E 023°37'0 0.0
2018-Jun-10 13:31N 37°56' E 023°37'0 0.0
2018-Jun-10 13:00N 37°56' E 023°37'0 0.0
2018-Jun-10 12:31N 37°56' E 023°37'0 0.0
2018-Jun-10 12:01N 37°56' E 023°37'0 0.0
2018-Jun-10 11:30N 37°56' E 023°37'0 0.0
2018-Jun-10 11:01N 37°56' E 023°37'0 0.0
2018-Jun-10 10:31N 37°56' E 023°37'0 0.0
2018-Jun-10 10:01N 37°56' E 023°37'0 0.0
2018-Jun-10 09:30N 37°56' E 023°37'0 0.0
2018-Jun-10 09:01N 37°56' E 023°37'0 0.0
2018-Jun-10 08:30N 37°56' E 023°37'0 0.0
2018-Jun-10 08:01N 37°56' E 023°37'0 0.0
2018-Jun-10 07:31N 37°56' E 023°37'0 0.0
2018-Jun-10 07:01N 37°56' E 023°37'0 0.0
2018-Jun-10 06:31N 37°56' E 023°37'0 0.0
2018-Jun-10 06:01N 37°56' E 023°37'0 0.0
2018-Jun-10 05:31N 37°56' E 023°37'0 0.0
2018-Jun-10 05:00N 37°56' E 023°37'0 0.1
2018-Jun-10 04:31N 37°56' E 023°37'2 4.0
2018-Jun-10 04:00N 37°54' E 023°38'816.8
2018-Jun-10 03:30N 37°47' E 023°42'816.3
2018-Jun-10 03:00N 37°40' E 023°48'917.2
2018-Jun-10 02:30N 37°36' E 023°58'3917.7
2018-Jun-10 00:17N 37°23' E 024°44'518.6
2018-Jun-10 00:00N 37°21' E 024°50'918.2
2018-Jun-09 23:30N 37°19' E 025°01'918.5
2018-Jun-09 23:00N 37°17' E 025°12'918.7
2018-Jun-09 22:30N 37°15' E 025°24'1218.5
2018-Jun-09 21:52N 37°12' E 025°38'718.6
2018-Jun-09 21:30N 37°11' E 025°47'  
Track history (hours):
 
Tides and Currents Weather Stations Pressure Air Temp Water Temp Dewpoint Dewpoint Depression Visibility Wind Speed Wind Dir Waves Ship Positions

Blue Star 2

Last reported at 2018-Jun-18 22:27 UTC. Time now 2018-Jun-19 10:39 UTC.
Position N 37°18' E 025°53'.

Length 176.1 m; beam 25.7 m; draft 6.5 m.

Type: Passenger vessel. MMSI: 239737000.

Date/timePositionNaut miles runAvg speedWind from/ knotsBaromVisibWave heightAir tempDewpointWater temp
2018-Jun-18 22:27N 37°18' E 025°53'1524.1
2018-Jun-18 21:50N 37°20' E 025°35'824.2
2018-Jun-18 21:30N 37°20' E 025°25'1224.0
2018-Jun-18 21:01N 37°22' E 025°10'1121.8
2018-Jun-18 20:30N 37°26' E 024°57'1 2.9
2018-Jun-18 20:00N 37°27' E 024°58'1020.6
2018-Jun-18 19:31N 37°32' E 024°46'4324.3
2018-Jun-18 17:44N 37°37' E 023°52'625.0
2018-Jun-18 17:30N 37°39' E 023°45'1224.0
2018-Jun-18 17:01N 37°49' E 023°37'715.0
2018-Jun-18 16:30N 37°56' E 023°38'0 0.0
2018-Jun-18 16:00N 37°56' E 023°38'0 0.0
2018-Jun-18 15:31N 37°56' E 023°38'0 0.0
2018-Jun-18 15:00N 37°56' E 023°38'0 0.0
2018-Jun-18 14:30N 37°56' E 023°38'0 0.0
2018-Jun-18 14:00N 37°56' E 023°38'0 0.0
2018-Jun-18 13:31N 37°56' E 023°38'0 0.0
2018-Jun-18 13:00N 37°56' E 023°38'0 0.0
2018-Jun-18 12:30N 37°56' E 023°38'0 0.0
2018-Jun-18 12:00N 37°56' E 023°38'0 0.0
2018-Jun-18 11:30N 37°56' E 023°38'0 0.0
2018-Jun-18 11:00N 37°56' E 023°38'0 0.0
2018-Jun-18 10:30N 37°56' E 023°38'0 0.0
2018-Jun-18 10:00N 37°56' E 023°38'0 0.0
2018-Jun-18 09:30N 37°56' E 023°38'0 0.0
2018-Jun-18 09:00N 37°56' E 023°38'0 0.0
2018-Jun-18 08:30N 37°56' E 023°38'0 0.0
2018-Jun-18 08:00N 37°56' E 023°38'0 0.0
2018-Jun-18 07:30N 37°56' E 023°38'0 0.0
2018-Jun-18 07:00N 37°56' E 023°38'0 0.0
2018-Jun-18 06:30N 37°56' E 023°38'0 0.0
2018-Jun-18 06:00N 37°56' E 023°38'0 0.0
2018-Jun-18 05:30N 37°56' E 023°38'0 0.0
2018-Jun-18 05:00N 37°56' E 023°38'714.4
2018-Jun-18 04:31N 37°50' E 023°40'1223.8
2018-Jun-18 04:01N 37°40' E 023°48'2124.5
2018-Jun-18 03:09N 37°32' E 024°13'2524.8
2018-Jun-18 02:10N 37°31' E 024°44'425.4
2018-Jun-18 02:01N 37°32' E 024°49'815.2
2018-Jun-18 01:28N 37°26' E 024°57'5 9.6
2018-Jun-18 00:59N 37°25' E 025°02'1225.2
2018-Jun-18 00:31N 37°21' E 025°16'1325.3
2018-Jun-18 00:01N 37°19' E 025°32'1325.5
2018-Jun-17 23:31N 37°18' E 025°48'8 0.4
2018-Jun-17 04:20N 37°11' E 025°48'1524.5
2018-Jun-17 03:43N 37°14' E 025°30'524.3
2018-Jun-17 03:31N 37°15' E 025°23'1224.3
2018-Jun-17 03:00N 37°18' E 025°09'1224.0
2018-Jun-17 02:31N 37°20' E 024°54'5424.3
2018-Jun-17 00:17N 37°38' E 023°49'623.0
2018-Jun-17 00:00N 37°41' E 023°42'1223.9
2018-Jun-16 23:31N 37°52' E 023°37'4 8.9
2018-Jun-16 23:00N 37°56' E 023°38'0 0.0
2018-Jun-16 22:30N 37°56' E 023°38'0 0.0
2018-Jun-16 22:00N 37°56' E 023°38'0 0.0
2018-Jun-16 21:30N 37°56' E 023°38'0 0.0
2018-Jun-16 21:00N 37°56' E 023°38'0 0.0
2018-Jun-16 20:30N 37°56' E 023°38'1 1.3
2018-Jun-16 20:01N 37°56' E 023°37'1121.6
2018-Jun-16 19:31N 37°46' E 023°42'1224.1
2018-Jun-16 19:00N 37°38' E 023°54'1724.7
2018-Jun-16 18:19N 37°31' E 024°13'2625.5
2018-Jun-16 17:19N 37°24' E 024°44'824.9
2018-Jun-16 17:01N 37°21' E 024°53'1325.2
2018-Jun-16 16:30N 37°18' E 025°08'1224.6
2018-Jun-16 16:01N 37°15' E 025°23'1224.9
2018-Jun-16 15:30N 37°12' E 025°39'13 0.8
2018-Jun-15 22:30N 37°18' E 025°53'1624.2
2018-Jun-15 21:50N 37°20' E 025°33'824.3
2018-Jun-15 21:31N 37°21' E 025°23'1223.7
2018-Jun-15 21:01N 37°23' E 025°09'10 9.7
2018-Jun-15 19:57N 37°26' E 024°57'715.7
2018-Jun-15 19:30N 37°32' E 024°51'4824.2
2018-Jun-15 17:31N 37°37' E 023°52'024.9
2018-Jun-15 17:30N 37°37' E 023°51'1122.0
2018-Jun-15 17:01N 37°44' E 023°40'1122.5
2018-Jun-15 16:30N 37°55' E 023°37'2 3.1
2018-Jun-15 16:00N 37°56' E 023°37'0 0.0
2018-Jun-15 15:30N 37°56' E 023°37'0 0.0
2018-Jun-15 15:00N 37°56' E 023°37'0 0.0
2018-Jun-15 14:30N 37°56' E 023°37'0 0.0
2018-Jun-15 14:00N 37°56' E 023°37'0 0.0
2018-Jun-15 13:30N 37°56' E 023°37'0 0.0
2018-Jun-15 13:00N 37°56' E 023°37'0 0.0
2018-Jun-15 12:31N 37°56' E 023°37'0 0.0
2018-Jun-15 12:01N 37°56' E 023°37'0 0.0
2018-Jun-15 11:31N 37°56' E 023°37'0 0.0
2018-Jun-15 11:01N 37°56' E 023°37'0 0.0
2018-Jun-15 10:31N 37°56' E 023°37'3 6.6
2018-Jun-15 10:01N 37°53' E 023°38'1225.0
2018-Jun-15 09:30N 37°42' E 023°45'1324.2
2018-Jun-15 08:58N 37°36' E 023°60'1224.8
2018-Jun-15 08:29N 37°31' E 024°13'2425.0
2018-Jun-15 07:31N 37°31' E 024°44'025.7
2018-Jun-15 07:30N 37°31' E 024°44'1122.3
2018-Jun-15 07:00N 37°28' E 024°58'2 4.0
2018-Jun-15 06:31N 37°26' E 024°59'1325.1
2018-Jun-15 06:01N 37°21' E 025°13'1224.7
2018-Jun-15 05:31N 37°20' E 025°28'1224.8
2018-Jun-15 05:01N 37°19' E 025°44'9 0.5
2018-Jun-14 11:10N 37°11' E 025°49'425.3
2018-Jun-14 11:01N 37°12' E 025°44'1225.0
2018-Jun-14 10:30N 37°14' E 025°28'1224.6
2018-Jun-14 10:01N 37°17' E 025°13'1224.7
2018-Jun-14 09:30N 37°20' E 024°58'6125.0
2018-Jun-14 07:03N 37°39' E 023°45'225.6
2018-Jun-14 07:00N 37°40' E 023°43'1224.9
2018-Jun-14 06:31N 37°51' E 023°37'611.3
2018-Jun-14 06:00N 37°56' E 023°38'0 0.0
2018-Jun-14 05:30N 37°56' E 023°38'0 0.0
2018-Jun-14 05:00N 37°56' E 023°38'0 0.0
2018-Jun-14 04:30N 37°56' E 023°38'0 0.0
2018-Jun-14 04:00N 37°56' E 023°38'0 0.0
2018-Jun-14 03:30N 37°56' E 023°38'0 0.0
2018-Jun-14 03:00N 37°56' E 023°38'4 7.1
2018-Jun-14 02:31N 37°53' E 023°38'1325.5
2018-Jun-14 02:00N 37°41' E 023°45'4 0.1
2018-Jun-12 19:43N 37°38' E 023°46'525.0
2018-Jun-12 19:31N 37°42' E 023°42'1224.0
2018-Jun-12 19:00N 37°53' E 023°37'3 6.4
2018-Jun-12 18:30N 37°56' E 023°37'0 0.0
2018-Jun-12 18:00N 37°56' E 023°37'0 0.0
2018-Jun-12 17:30N 37°56' E 023°37'0 0.0
2018-Jun-12 17:00N 37°56' E 023°37'0 0.0
2018-Jun-12 16:30N 37°56' E 023°37'0 0.0
2018-Jun-12 16:00N 37°56' E 023°37'0 0.1
2018-Jun-12 15:30N 37°56' E 023°38'714.4
2018-Jun-12 15:00N 37°49' E 023°40'1224.6
2018-Jun-12 14:30N 37°39' E 023°49'4425.4
2018-Jun-12 12:46N 37°31' E 024°44'1025.0
2018-Jun-12 12:23N 37°31' E 024°56'5 6.4
2018-Jun-12 11:40N 37°26' E 024°57'623.0
2018-Jun-12 11:24N 37°27' E 025°04'1024.9
2018-Jun-12 11:01N 37°28' E 025°17'2 4.0
2018-Jun-12 10:30N 37°28' E 025°19'0 0.0
2018-Jun-12 10:00N 37°28' E 025°19'612.5
2018-Jun-12 09:30N 37°28' E 025°12'1223.3
2018-Jun-12 09:00N 37°26' E 024°57'2 3.9
2018-Jun-12 08:31N 37°28' E 024°58'1121.9
2018-Jun-12 08:00N 37°31' E 024°45'4524.9
2018-Jun-12 06:13N 37°39' E 023°49'526.0
2018-Jun-12 06:01N 37°41' E 023°43'1325.4
2018-Jun-12 05:31N 37°53' E 023°37'4 7.5
2018-Jun-12 05:00N 37°56' E 023°37'0 0.0
2018-Jun-12 04:31N 37°56' E 023°37'0 0.0
2018-Jun-12 04:00N 37°56' E 023°37'1 2.5
2018-Jun-12 03:30N 37°55' E 023°37'1122.2
2018-Jun-12 03:01N 37°45' E 023°43'1325.2
2018-Jun-12 02:31N 37°35' E 023°52'3 0.1
2018-Jun-10 16:14N 37°37' E 023°49'522.0
2018-Jun-10 16:00N 37°40' E 023°44'1121.8
2018-Jun-10 15:31N 37°49' E 023°38'714.5
2018-Jun-10 15:01N 37°56' E 023°37'0 0.0
2018-Jun-10 14:01N 37°56' E 023°37'0 0.0
2018-Jun-10 13:31N 37°56' E 023°37'0 0.0
2018-Jun-10 13:00N 37°56' E 023°37'0 0.0
2018-Jun-10 12:31N 37°56' E 023°37'0 0.0
2018-Jun-10 12:01N 37°56' E 023°37'0 0.0
2018-Jun-10 11:30N 37°56' E 023°37'0 0.0
2018-Jun-10 11:01N 37°56' E 023°37'0 0.0
2018-Jun-10 10:31N 37°56' E 023°37'0 0.0
2018-Jun-10 10:01N 37°56' E 023°37'0 0.0
2018-Jun-10 09:30N 37°56' E 023°37'0 0.0
2018-Jun-10 09:01N 37°56' E 023°37'0 0.0
2018-Jun-10 08:30N 37°56' E 023°37'0 0.0
2018-Jun-10 08:01N 37°56' E 023°37'0 0.0
2018-Jun-10 07:31N 37°56' E 023°37'0 0.0
2018-Jun-10 07:01N 37°56' E 023°37'0 0.0
2018-Jun-10 06:31N 37°56' E 023°37'0 0.0
2018-Jun-10 06:01N 37°56' E 023°37'0 0.0
2018-Jun-10 05:31N 37°56' E 023°37'0 0.0
2018-Jun-10 05:00N 37°56' E 023°37'0 0.1
2018-Jun-10 04:31N 37°56' E 023°37'2 4.0
2018-Jun-10 04:00N 37°54' E 023°38'816.8
2018-Jun-10 03:30N 37°47' E 023°42'816.3
2018-Jun-10 03:00N 37°40' E 023°48'917.2
2018-Jun-10 02:30N 37°36' E 023°58'3917.7
2018-Jun-10 00:17N 37°23' E 024°44'518.6
2018-Jun-10 00:00N 37°21' E 024°50'918.2
2018-Jun-09 23:30N 37°19' E 025°01'918.5
2018-Jun-09 23:00N 37°17' E 025°12'918.7
2018-Jun-09 22:30N 37°15' E 025°24'1218.5
2018-Jun-09 21:52N 37°12' E 025°38'718.6
2018-Jun-09 21:30N 37°11' E 025°47'  

Dump ship's entire track history